createdAt,value
2019-05-02T00:01:57.149Z,23.57
2019-05-02T00:06:02.895Z,24.33
2019-05-02T00:10:08.778Z,25.17
2019-05-02T00:14:13.356Z,23.57
2019-05-02T00:18:18.480Z,23.13
2019-05-02T00:22:22.517Z,24.07
2019-05-02T00:26:26.544Z,25.60
2019-05-02T00:30:34.585Z,26.37
2019-05-02T00:34:36.495Z,25.67
2019-05-02T00:38:40.873Z,25.63
2019-05-02T00:42:44.886Z,24.03
2019-05-02T00:46:48.940Z,26.90
2019-05-02T00:50:53.067Z,24.40
2019-05-02T00:54:58.727Z,23.80
2019-05-02T00:59:07.466Z,25.20
2019-05-02T01:03:11.094Z,23.83
2019-05-02T01:07:20.368Z,22.67
2019-05-02T01:11:22.295Z,25.23
2019-05-02T01:15:26.427Z,24.00
2019-05-02T01:19:31.778Z,25.03
2019-05-02T01:23:35.782Z,25.00
2019-05-02T01:27:48.714Z,24.37
2019-05-02T01:32:00.129Z,24.07
2019-05-02T01:36:08.678Z,25.73
2019-05-02T01:40:13.089Z,25.53
2019-05-02T01:44:18.431Z,25.83
2019-05-02T01:48:22.650Z,23.97
2019-05-02T01:52:26.529Z,23.50
2019-05-02T01:56:33.192Z,23.57
2019-05-02T02:00:40.640Z,22.93
2019-05-02T02:04:42.064Z,24.83
2019-05-02T02:08:47.306Z,25.47
2019-05-02T02:13:03.218Z,25.40
2019-05-02T02:16:57.044Z,24.67
2019-05-02T02:21:09.288Z,26.00
2019-05-02T02:25:32.312Z,26.93
2019-05-02T02:29:33.473Z,24.87
2019-05-02T02:33:40.874Z,28.67
2019-05-02T02:37:52.043Z,26.40
2019-05-02T02:41:52.051Z,25.93
2019-05-02T02:46:13.802Z,26.37
2019-05-02T02:50:17.767Z,24.90
2019-05-02T02:54:21.922Z,28.50
2019-05-02T02:58:25.996Z,23.83
2019-05-02T03:02:30.042Z,24.80
2019-05-02T03:06:38.639Z,26.03
2019-05-02T03:10:45.083Z,27.63
2019-05-02T03:14:50.169Z,26.03
2019-05-02T03:18:54.362Z,23.73
2019-05-02T03:22:58.555Z,22.53
2019-05-02T03:27:02.597Z,24.17
2019-05-02T03:31:21.926Z,25.20
2019-05-02T03:35:18.516Z,24.50
2019-05-02T03:39:18.196Z,24.00
2019-05-02T03:43:25.818Z,24.00
2019-05-02T03:47:27.963Z,24.07
2019-05-02T03:51:32.116Z,23.20
2019-05-02T03:55:36.257Z,24.10
2019-05-02T04:04:20.479Z,22.70
2019-05-02T04:08:22.708Z,22.17
2019-05-02T04:12:26.858Z,22.73
2019-05-02T04:16:30.911Z,24.27
2019-05-02T04:20:35.055Z,23.53
2019-05-02T04:24:47.835Z,21.97
2019-05-02T04:28:51.630Z,21.60
2019-05-02T04:32:55.728Z,20.63
2019-05-02T04:37:03.392Z,19.13
2019-05-02T04:41:05.176Z,19.80
2019-05-02T04:45:24.312Z,21.63
2019-05-02T04:49:20.038Z,19.73
2019-05-02T04:53:25.989Z,19.73
2019-05-02T04:57:36.106Z,21.43
2019-05-02T05:01:42.056Z,21.47
2019-05-02T05:05:40.391Z,20.53
2019-05-02T05:09:47.949Z,20.07
2019-05-02T05:13:52.454Z,20.57
2019-05-02T05:17:55.248Z,20.10
2019-05-02T05:22:04.992Z,20.10
2019-05-02T05:26:07.137Z,19.87
2019-05-02T05:30:15.533Z,20.87
2019-05-02T05:34:17.342Z,19.20
2019-05-02T05:38:23.098Z,18.57
2019-05-02T05:42:30.246Z,20.07
2019-05-02T05:46:38.034Z,19.93
2019-05-02T05:50:41.402Z,17.30
2019-05-02T05:54:47.058Z,18.83
2019-05-02T05:58:52.626Z,19.60
2019-05-02T06:03:10.344Z,18.67
2019-05-02T06:07:04.305Z,19.53
2019-05-02T06:11:08.711Z,19.77
2019-05-02T06:15:12.866Z,18.70
2019-05-02T06:19:17.866Z,18.33
2019-05-02T06:23:22.623Z,17.00
2019-05-02T06:27:30.294Z,17.90
2019-05-02T06:31:32.531Z,17.30
2019-05-02T06:35:36.490Z,16.37
2019-05-02T06:39:40.594Z,18.20
2019-05-02T06:43:46.643Z,16.67
2019-05-02T06:47:50.375Z,17.67
2019-05-02T06:51:56.329Z,16.17
2019-05-02T06:56:00.240Z,18.00
2019-05-02T07:00:06.494Z,15.20
2019-05-02T07:04:10.632Z,15.83
2019-05-02T07:08:14.718Z,15.67
2019-05-02T07:12:18.804Z,15.33
2019-05-02T07:16:38.119Z,15.73
2019-05-02T07:20:40.712Z,16.73
2019-05-02T07:24:42.032Z,15.57
2019-05-02T07:28:47.537Z,16.03
2019-05-02T07:32:51.603Z,16.93
2019-05-02T07:36:55.662Z,16.87
2019-05-02T07:40:59.710Z,15.37
2019-05-02T07:45:04.296Z,16.13
2019-05-02T07:49:10.787Z,14.20
2019-05-02T07:53:14.908Z,17.17
2019-05-02T07:57:19.032Z,14.97
2019-05-02T08:01:22.931Z,14.63
2019-05-02T08:05:26.910Z,16.30
2019-05-02T08:09:30.970Z,16.87
2019-05-02T08:13:35.065Z,17.17
2019-05-02T08:17:39.171Z,15.83
2019-05-02T08:21:43.177Z,17.93
2019-05-02T08:25:47.127Z,15.73
2019-05-02T08:29:51.695Z,17.77
2019-05-02T08:33:55.871Z,16.13
2019-05-02T08:38:00.229Z,17.73
2019-05-02T08:42:04.688Z,16.50
2019-05-02T08:46:09.336Z,16.60
2019-05-02T08:50:14.735Z,14.45
2019-05-02T08:54:18.970Z,14.65
2019-05-02T08:58:23.152Z,13.90
2019-05-02T09:02:27.545Z,14.65
2019-05-02T09:06:33.166Z,15.15
2019-05-02T09:10:42.117Z,13.80
2019-05-02T09:14:43.155Z,15.60
2019-05-02T09:18:53.343Z,14.33
2019-05-02T09:22:55.991Z,14.80
2019-05-02T09:26:59.164Z,14.58
2019-05-02T09:31:06.660Z,14.58
2019-05-02T09:35:09.222Z,12.95
2019-05-02T09:39:13.453Z,13.50
2019-05-02T09:43:17.538Z,13.08
2019-05-02T09:47:27.525Z,13.58
2019-05-02T09:51:28.724Z,12.80
2019-05-02T09:55:32.955Z,14.03
2019-05-02T09:59:37.077Z,13.10
2019-05-02T10:03:42.295Z,13.13
2019-05-02T10:07:48.557Z,12.98
2019-05-02T10:11:52.646Z,13.13
2019-05-02T10:15:56.771Z,13.58
2019-05-02T10:20:02.095Z,12.98
2019-05-02T10:24:06.659Z,11.60
2019-05-02T10:28:12.780Z,10.45
2019-05-02T10:32:16.800Z,10.32
2019-05-02T10:36:23.359Z,11.12
2019-05-02T10:40:26.869Z,11.18
2019-05-02T10:44:32.585Z,9.60
2019-05-02T10:48:41.925Z,9.80
2019-05-02T10:52:45.758Z,10.08
2019-05-02T10:56:51.721Z,9.35
2019-05-02T11:00:55.791Z,9.95
2019-05-02T11:05:03.392Z,9.40
2019-05-02T11:09:09.668Z,10.38
2019-05-02T11:13:21.789Z,8.28
2019-05-02T11:17:32.360Z,6.83
2019-05-02T11:21:36.660Z,7.92
2019-05-02T11:25:42.153Z,7.83
2019-05-02T11:29:47.374Z,7.28
2019-05-02T11:33:52.689Z,7.37
2019-05-02T11:37:56.878Z,7.53
2019-05-02T11:42:02.109Z,8.53
2019-05-02T11:46:07.388Z,6.67
2019-05-02T11:50:11.973Z,7.28
2019-05-02T11:54:16.228Z,6.87
2019-05-02T11:58:22.831Z,7.33
2019-05-02T12:02:49.130Z,6.20
2019-05-02T12:07:00.886Z,5.50
2019-05-02T12:10:57.021Z,5.97
2019-05-02T12:15:02.537Z,7.08
2019-05-02T12:19:11.777Z,6.78
2019-05-02T12:23:13.109Z,6.42
2019-05-02T12:27:17.171Z,8.20
2019-05-02T12:31:25.487Z,7.33
2019-05-02T12:35:32.210Z,5.58
2019-05-02T12:39:36.478Z,5.60
2019-05-02T12:43:41.638Z,4.60
2019-05-02T12:47:45.734Z,5.60
2019-05-02T12:51:49.868Z,5.58
2019-05-02T12:55:54.046Z,7.67
2019-05-02T12:59:58.235Z,6.65
2019-05-02T13:04:06.047Z,9.25
2019-05-02T13:08:12.234Z,7.08
2019-05-02T13:12:22.800Z,9.03
2019-05-02T13:16:26.978Z,5.20
2019-05-02T13:20:34.767Z,3.22
2019-05-02T13:24:42.208Z,3.90
2019-05-02T13:28:46.046Z,3.42
2019-05-02T13:32:57.709Z,2.95
2019-05-02T13:36:58.962Z,3.05
2019-05-02T13:41:03.299Z,3.50
2019-05-02T13:45:16.284Z,3.58
2019-05-02T13:49:21.974Z,3.98
2019-05-02T13:53:26.067Z,4.45
2019-05-02T13:57:35.048Z,4.80
2019-05-02T14:01:36.106Z,4.60
2019-05-02T14:05:49.314Z,4.72
2019-05-02T14:09:58.080Z,5.25
2019-05-02T14:13:58.592Z,4.65
2019-05-02T14:18:02.695Z,4.70
2019-05-02T14:22:08.072Z,4.10
2019-05-02T14:26:12.376Z,3.83
2019-05-02T14:30:17.436Z,4.03
2019-05-02T14:34:27.148Z,3.90
2019-05-02T14:38:32.125Z,4.53
2019-05-02T14:42:36.312Z,4.00
2019-05-02T14:46:42.399Z,4.42
2019-05-02T14:50:46.605Z,5.08
2019-05-02T14:54:52.523Z,4.85
2019-05-02T14:58:56.552Z,5.95
2019-05-02T15:03:03.391Z,5.92
2019-05-02T15:07:08.528Z,5.25
2019-05-02T15:11:12.654Z,5.80
2019-05-02T15:15:16.807Z,4.95
2019-05-02T15:19:21.882Z,5.10
2019-05-02T15:23:26.298Z,5.85
2019-05-02T15:27:40.223Z,5.72
2019-05-02T15:31:38.929Z,5.80
2019-05-02T15:35:57.174Z,5.65
2019-05-02T15:44:05.593Z,5.42
2019-05-02T15:48:14.590Z,6.45
2019-05-02T15:52:18.868Z,6.30
2019-05-02T15:56:24.530Z,5.70
2019-05-02T16:00:32.430Z,7.90
2019-05-02T16:04:38.140Z,9.23
2019-05-02T16:08:46.000Z,10.45
2019-05-02T16:12:52.688Z,10.48
2019-05-02T16:16:56.975Z,9.73
2019-05-02T16:21:07.999Z,9.63
2019-05-02T16:25:12.297Z,8.93
2019-05-02T16:29:23.415Z,8.50
2019-05-02T16:33:22.351Z,8.50
2019-05-02T16:37:26.708Z,7.20
2019-05-02T16:41:30.341Z,6.87
2019-05-02T16:45:52.637Z,6.33
2019-05-02T16:50:15.151Z,6.15
2019-05-02T16:54:41.910Z,6.25
2019-05-02T16:58:47.051Z,5.17
2019-05-02T17:02:48.966Z,6.05
2019-05-02T17:06:56.920Z,6.00
2019-05-02T17:11:02.857Z,5.42
2019-05-02T17:15:26.368Z,4.50
2019-05-02T17:19:34.819Z,4.87
2019-05-02T17:23:37.474Z,5.05
2019-05-02T17:27:42.327Z,5.08
2019-05-02T17:31:55.524Z,4.00
2019-05-02T17:35:57.584Z,6.30
2019-05-02T17:40:01.875Z,4.05
2019-05-02T17:44:06.035Z,3.35
2019-05-02T17:48:16.203Z,2.08
2019-05-02T17:52:26.693Z,2.25
2019-05-02T17:56:29.139Z,1.65
2019-05-02T18:00:36.058Z,1.40
2019-05-02T18:04:41.943Z,1.40
2019-05-02T18:08:50.620Z,1.50
2019-05-02T18:12:58.119Z,1.90
2019-05-02T18:16:57.784Z,2.00
2019-05-02T18:21:02.171Z,1.85
2019-05-02T18:25:06.590Z,1.80
2019-05-02T18:29:12.425Z,2.20
2019-05-02T18:33:16.505Z,1.97
2019-05-02T18:37:21.877Z,1.70
2019-05-02T18:41:26.084Z,1.73
2019-05-02T18:45:31.901Z,1.90
2019-05-02T18:49:36.073Z,2.27
2019-05-02T18:53:42.236Z,2.50
2019-05-02T18:57:46.009Z,2.73
2019-05-02T19:01:52.718Z,2.50
2019-05-02T19:05:57.357Z,2.80
2019-05-02T19:10:04.250Z,2.20
2019-05-02T19:14:11.634Z,2.27
2019-05-02T19:18:18.101Z,2.10
2019-05-02T19:22:22.448Z,1.90
2019-05-02T19:26:26.484Z,2.63
2019-05-02T19:30:32.624Z,2.77
2019-05-02T19:34:36.848Z,2.80
2019-05-02T19:38:42.806Z,2.67
2019-05-02T19:42:47.330Z,2.37
2019-05-02T19:46:51.995Z,2.70
2019-05-02T19:50:56.090Z,2.73
2019-05-02T19:55:00.212Z,3.07
2019-05-02T19:59:04.337Z,2.70
2019-05-02T20:03:08.407Z,2.73
2019-05-02T20:07:12.662Z,2.60
2019-05-02T20:11:17.742Z,2.30
2019-05-02T20:15:26.971Z,2.40
2019-05-02T20:19:31.851Z,2.57
2019-05-02T20:23:37.066Z,2.90
2019-05-02T20:27:42.157Z,3.27
2019-05-02T20:31:46.254Z,2.67
2019-05-02T20:35:50.393Z,3.20
2019-05-02T20:39:54.433Z,3.53
2019-05-02T20:43:58.575Z,3.70
2019-05-02T20:48:02.694Z,4.13
2019-05-02T20:52:06.812Z,4.57
2019-05-02T20:56:12.411Z,4.23
2019-05-02T21:00:19.498Z,4.80
2019-05-02T21:04:23.622Z,5.20
2019-05-02T21:08:34.566Z,5.40
2019-05-02T21:12:38.513Z,5.00
2019-05-02T21:16:42.623Z,5.73
2019-05-02T21:20:46.738Z,5.53
2019-05-02T21:24:52.910Z,6.07
2019-05-02T21:28:56.784Z,6.30
2019-05-02T21:33:02.714Z,6.27
2019-05-02T21:37:06.767Z,6.93
2019-05-02T21:41:11.281Z,6.90
2019-05-02T21:45:15.824Z,6.63
2019-05-02T21:49:39.141Z,6.47
2019-05-02T21:53:56.070Z,7.33
2019-05-02T21:57:57.296Z,6.53
2019-05-02T22:02:02.418Z,7.20
2019-05-02T22:06:06.757Z,7.73
2019-05-02T22:10:12.105Z,8.70
2019-05-02T22:14:16.236Z,8.07
2019-05-02T22:18:21.663Z,7.47
2019-05-02T22:22:25.849Z,9.40
2019-05-02T22:26:29.874Z,9.00
2019-05-02T22:30:33.910Z,8.43
2019-05-02T22:34:37.891Z,8.60
2019-05-02T22:38:49.457Z,11.20
2019-05-02T22:42:53.630Z,9.23
2019-05-02T22:46:57.698Z,10.63
2019-05-02T22:51:01.866Z,9.43
2019-05-02T22:55:07.074Z,9.93
2019-05-02T22:59:11.162Z,10.10
2019-05-02T23:03:16.468Z,9.20
2019-05-02T23:07:22.174Z,8.17
2019-05-02T23:11:26.180Z,8.00
2019-05-02T23:15:31.987Z,6.30
2019-05-02T23:19:36.563Z,5.83
2019-05-02T23:23:41.775Z,5.90
2019-05-02T23:27:51.861Z,6.00
2019-05-02T23:31:55.955Z,5.30
2019-05-02T23:36:01.917Z,5.13
2019-05-02T23:40:05.761Z,5.27
2019-05-02T23:44:12.077Z,5.33
2019-05-02T23:48:15.718Z,5.33
2019-05-02T23:52:19.697Z,6.07
2019-05-02T23:56:24.819Z,4.93
